Time;durP1;ratioP1;P1;durP2;ratioP2;P2;SDS_P1;SDS_P2;PMS_P1;PMS_P2;Temp;Humidity;BMP_temperature;BMP_pressure;BME280_temperature;BME280_humidity;BME280_pressure;Samples;Min_cycle;Max_cycle;Signal;HPM_P1;HPM_P2
2022/05/03 00:09:03;;;;;;;3.85;2.53;;;;;;;23.29;37.51;100160.28;20487451;28;97295;-79
2022/05/03 00:19:05;;;;;;;2.40;2.13;;;;;;;23.27;37.78;100159.59;20498461;28;97537;-79
2022/05/03 00:29:06;;;;;;;3.13;2.63;;;;;;;23.25;37.68;100144.84;20491069;27;96871;-79
2022/05/03 00:39:06;;;;;;;2.90;2.22;;;;;;;23.24;37.68;100143.19;20496702;28;96888;-79
2022/05/03 00:49:17;;;;;;;3.75;2.10;;;;;;;23.22;37.70;100143.31;20497000;28;96940;-79
2022/05/03 00:59:36;;;;;;;3.33;2.22;;;;;;;23.22;37.75;100130.13;20497632;28;97589;-79
2022/05/03 01:09:39;;;;;;;3.30;2.28;;;;;;;23.19;37.84;100138.31;20452203;28;97113;-79
2022/05/03 01:19:58;;;;;;;3.15;2.30;;;;;;;23.19;37.70;100138.31;20494581;28;96965;-78
2022/05/03 01:30:01;;;;;;;4.60;2.70;;;;;;;23.17;37.59;100145.56;20492310;28;97280;-79
2022/05/03 01:40:16;;;;;;;3.20;2.45;;;;;;;23.17;37.51;100138.44;20489577;28;96851;-79
2022/05/03 01:50:28;;;;;;;2.72;2.33;;;;;;;23.18;37.56;100153.34;20491254;28;97030;-79
2022/05/03 02:00:34;;;;;;;3.05;2.40;;;;;;;23.15;37.72;100145.63;20480264;28;97152;-79
2022/05/03 02:10:41;;;;;;;2.50;2.30;;;;;;;23.14;37.64;100140.50;20493559;28;96941;-79
2022/05/03 02:21:00;;;;;;;2.67;2.35;;;;;;;23.12;37.40;100145.06;20482012;28;97147;-78
2022/05/03 02:31:04;;;;;;;2.85;2.45;;;;;;;23.10;37.82;100147.03;20494007;28;96900;-79
2022/05/03 02:41:10;;;;;;;4.10;2.70;;;;;;;23.09;37.82;100140.09;20489797;28;96835;-79
2022/05/03 02:51:13;;;;;;;2.50;2.30;;;;;;;23.06;37.69;100143.84;20490117;28;96880;-79
2022/05/03 03:01:51;;;;;;;2.60;2.40;;;;;;;23.08;37.76;100133.94;20489535;28;97107;-79
2022/05/03 03:11:55;;;;;;;2.85;2.40;;;;;;;23.07;37.68;100140.22;20398788;28;96696;-79
2022/05/03 03:21:58;;;;;;;3.22;2.35;;;;;;;23.10;37.77;100142.59;20403996;28;97112;-79
2022/05/03 03:32:01;;;;;;;3.42;2.60;;;;;;;23.06;37.56;100141.19;20419146;28;96852;-79
2022/05/03 03:42:03;;;;;;;2.95;2.30;;;;;;;23.06;37.70;100159.69;20418043;28;97439;-79
2022/05/03 03:52:04;;;;;;;2.83;2.42;;;;;;;23.02;37.95;100163.56;20418050;28;96764;-79
2022/05/03 04:02:05;;;;;;;2.92;2.67;;;;;;;23.03;37.78;100170.50;20415796;28;97442;-79
2022/05/03 04:12:06;;;;;;;3.13;2.53;;;;;;;23.03;37.80;100173.16;20414716;28;96929;-78
2022/05/03 04:22:27;;;;;;;4.45;2.30;;;;;;;23.00;37.58;100173.44;20415839;28;96915;-79
2022/05/03 04:32:32;;;;;;;4.15;2.38;;;;;;;23.02;37.93;100177.59;20415279;28;96859;-78
2022/05/03 04:42:32;;;;;;;2.50;2.30;;;;;;;23.01;37.80;100183.03;20418413;28;96932;-79
2022/05/03 04:52:33;;;;;;;3.15;2.65;;;;;;;22.98;37.96;100186.75;20415799;28;97118;-80
2022/05/03 05:02:34;;;;;;;3.42;2.40;;;;;;;23.01;37.79;100183.03;20419722;28;96916;-80
2022/05/03 05:12:34;;;;;;;3.80;2.67;;;;;;;23.03;37.80;100183.72;20411838;28;97039;-79
2022/05/03 05:22:34;;;;;;;3.05;2.55;;;;;;;23.05;37.53;100181.78;20407809;28;97381;-79
2022/05/03 05:32:36;;;;;;;2.78;2.40;;;;;;;23.06;37.72;100183.47;20410863;28;97245;-79
2022/05/03 05:42:38;;;;;;;3.58;2.83;;;;;;;23.05;37.63;100187.06;20408039;28;97095;-79
2022/05/03 06:02:59;;;;;;;3.45;2.63;;;;;;;23.05;37.87;100180.97;20414495;28;96832;-80
2022/05/03 06:13:02;;;;;;;3.60;2.57;;;;;;;23.07;37.83;100184.28;20414715;28;97738;-81
2022/05/03 06:23:04;;;;;;;4.13;2.47;;;;;;;23.08;38.15;100188.59;20410765;28;96827;-80
2022/05/03 06:33:05;;;;;;;4.30;2.73;;;;;;;23.11;37.89;100186.50;20411219;28;96738;-79
2022/05/03 06:43:06;;;;;;;2.83;2.42;;;;;;;23.13;37.79;100192.50;20410649;28;97111;-79
2022/05/03 06:53:07;;;;;;;4.22;2.60;;;;;;;23.10;38.01;100190.13;20406931;28;97083;-80
2022/05/03 07:03:10;;;;;;;2.63;2.40;;;;;;;23.13;37.80;100194.28;20418654;28;96807;-80
2022/05/03 07:13:13;;;;;;;2.95;2.60;;;;;;;23.14;38.05;100188.91;20424402;28;97055;-80
2022/05/03 07:23:16;;;;;;;3.75;2.35;;;;;;;23.15;37.67;100187.06;20421767;28;96998;-78
2022/05/03 07:33:17;;;;;;;2.25;2.05;;;;;;;23.15;37.86;100192.34;20414141;28;97703;-78
2022/05/03 07:43:17;;;;;;;3.17;2.40;;;;;;;23.17;38.02;100196.56;20420961;28;97097;-79
2022/05/03 07:53:18;;;;;;;2.78;2.22;;;;;;;23.17;37.84;100191.28;20419039;28;96947;-79
2022/05/03 08:03:20;;;;;;;3.35;2.15;;;;;;;23.17;38.14;100193.09;20420483;28;97516;-80
2022/05/03 08:13:21;;;;;;;2.70;2.33;;;;;;;23.14;37.92;100191.53;20430769;28;97237;-79
2022/05/03 08:23:21;;;;;;;2.38;2.17;;;;;;;23.18;37.88;100192.13;20419357;28;96898;-79
2022/05/03 08:33:21;;;;;;;3.28;2.35;;;;;;;23.20;37.86;100192.81;20416118;28;96878;-80
2022/05/03 08:43:24;;;;;;;2.30;2.10;;;;;;;23.22;38.04;100188.22;20418575;28;96853;-80
2022/05/03 08:53:25;;;;;;;2.28;2.05;;;;;;;23.23;37.87;100187.25;20419963;28;97535;-79
2022/05/03 09:03:25;;;;;;;3.58;2.47;;;;;;;23.24;38.23;100188.09;20416479;28;97275;-79
2022/05/03 09:13:28;;;;;;;2.13;1.92;;;;;;;23.23;38.03;100184.63;20416172;28;96939;-79
2022/05/03 09:23:47;;;;;;;2.25;2.00;;;;;;;23.24;38.02;100177.53;20416282;28;97627;-79
2022/05/03 09:33:48;;;;;;;2.20;2.00;;;;;;;23.25;38.23;100166.81;20416344;28;96882;-79
2022/05/03 09:44:05;;;;;;;1.90;1.80;;;;;;;23.29;37.99;100167.38;20414399;28;96944;-79
2022/05/03 09:54:06;;;;;;;2.20;2.00;;;;;;;23.32;38.15;100156.53;20412673;28;96671;-78
2022/05/03 10:04:07;;;;;;;2.45;1.90;;;;;;;23.37;38.07;100143.75;20414166;28;96764;-79
2022/05/03 10:14:08;;;;;;;2.60;2.10;;;;;;;23.41;37.99;100137.22;20412603;28;96929;-80
2022/05/03 10:24:11;;;;;;;3.33;2.50;;;;;;;23.47;37.93;100128.72;20411561;28;96895;-80
2022/05/03 10:34:40;;;;;;;3.38;2.80;;;;;;;23.45;38.03;100121.94;20410607;28;97290;-79
2022/05/03 10:44:55;;;;;;;3.92;3.22;;;;;;;23.46;38.19;100113.00;20407348;28;97496;-79
2022/05/03 10:55:07;;;;;;;4.07;3.53;;;;;;;23.46;38.24;100113.00;20411374;28;96918;-79
2022/05/03 11:05:16;;;;;;;;;;;;;;;23.46;38.17;100105.91;20412091;28;97452;-80
2022/05/03 11:15:17;;;;;;;4.10;3.70;;;;;;;23.40;38.23;100113.56;20396993;28;97556;-80
2022/05/03 11:25:18;;;;;;;4.90;4.32;;;;;;;23.40;38.27;100114.41;20412752;28;97036;-80
2022/05/03 11:35:22;;;;;;;5.55;5.00;;;;;;;23.39;38.15;100102.16;20406508;28;97623;-79
2022/05/03 11:45:24;;;;;;;7.28;6.15;;;;;;;23.48;38.09;100096.03;20400603;28;97248;-79
2022/05/03 12:05:59;;;;;;;7.13;4.97;;;;;;;23.52;38.03;100115.06;20420792;28;96796;-79
2022/05/03 12:16:00;;;;;;;5.72;4.80;;;;;;;23.54;38.01;100118.41;20417502;28;96987;-79
2022/05/03 12:26:20;;;;;;;4.97;4.22;;;;;;;23.58;37.92;100111.03;20421186;28;97728;-79
2022/05/03 12:36:29;;;;;;;5.03;4.53;;;;;;;23.62;37.78;100107.13;20408841;28;97347;-80
2022/05/03 12:46:30;;;;;;;4.88;4.38;;;;;;;23.70;37.91;100078.19;20413339;28;96906;-79
2022/05/03 13:06:52;;;;;;;5.32;3.90;;;;;;;23.94;37.57;100079.56;20422403;28;96881;-80
2022/05/03 13:16:53;;;;;;;4.43;3.95;;;;;;;24.04;37.51;100056.53;20416790;28;97946;-80
2022/05/03 13:26:54;;;;;;;4.72;3.90;;;;;;;24.12;37.31;100061.09;20407423;28;97026;-79
2022/05/03 13:47:14;;;;;;;12.50;3.67;;;;;;;24.30;35.85;100043.47;20314205;28;99108;-76
2022/05/03 13:57:15;;;;;;;14.80;3.83;;;;;;;24.39;35.40;100043.53;20333855;28;99274;-74
2022/05/03 14:07:16;;;;;;;6.03;3.03;;;;;;;24.45;34.72;100037.69;20353585;28;97311;-79
2022/05/03 14:17:17;;;;;;;4.07;2.53;;;;;;;24.52;33.63;100041.38;20334458;28;98030;-80
2022/05/03 14:27:17;;;;;;;5.97;2.17;;;;;;;24.47;31.04;100056.88;20437584;28;98655;-81
2022/05/03 14:37:18;;;;;;;4.90;1.80;;;;;;;24.46;31.24;100060.50;20446837;28;98250;-77
2022/05/03 14:47:20;;;;;;;3.00;2.10;;;;;;;24.43;30.23;100060.81;20450313;28;97148;-80
2022/05/03 15:07:40;;;;;;;3.70;1.90;;;;;;;24.32;29.47;100055.72;20420751;28;98594;-80
2022/05/03 15:17:40;;;;;;;3.88;2.00;;;;;;;24.43;32.34;100069.56;20425651;28;97943;-79
2022/05/03 15:27:41;;;;;;;3.40;2.17;;;;;;;24.18;31.42;100089.63;20452785;28;98164;-77
2022/05/03 15:37:41;;;;;;;8.70;2.08;;;;;;;24.25;31.96;100066.88;20416133;28;98118;-77
2022/05/03 15:47:42;;;;;;;5.97;2.08;;;;;;;24.35;31.18;100069.50;20432332;28;98655;-77
2022/05/03 15:57:44;;;;;;;4.37;2.03;;;;;;;24.07;31.63;100079.22;20432741;28;97735;-79
2022/05/03 16:07:45;;;;;;;6.10;2.55;;;;;;;23.80;33.05;100100.16;20456411;28;98121;-78
2022/05/03 16:17:46;;;;;;;3.43;2.13;;;;;;;23.61;34.34;100119.53;20444512;28;100202;-78
2022/05/03 16:27:47;;;;;;;3.92;1.80;;;;;;;23.50;34.35;100136.38;20402883;28;97415;-76
2022/05/03 16:48:07;;;;;;;5.38;1.63;;;;;;;23.59;34.94;100158.47;20418176;28;100679;-78
2022/05/03 16:58:10;;;;;;;4.93;2.05;;;;;;;23.73;36.38;100175.72;20387969;28;99625;-77
2022/05/03 17:08:11;;;;;;;4.07;1.95;;;;;;;23.81;37.01;100173.22;20340230;28;97501;-79
2022/05/03 17:18:12;;;;;;;5.23;2.00;;;;;;;23.88;37.69;100168.19;20351078;28;100764;-79
2022/05/03 17:28:13;;;;;;;4.15;2.03;;;;;;;23.87;37.93;100157.75;20345084;28;97319;-78
2022/05/03 17:38:13;;;;;;;7.05;2.40;;;;;;;23.85;38.18;100160.53;20358363;28;98558;-79
2022/05/03 17:48:16;;;;;;;7.95;2.05;;;;;;;23.89;38.04;100175.13;20352454;28;97055;-79
2022/05/03 17:58:16;;;;;;;6.50;2.13;;;;;;;23.90;37.84;100176.81;20352082;28;99590;-79
2022/05/03 18:08:17;;;;;;;3.22;2.03;;;;;;;23.90;38.09;100178.59;20359008;28;97367;-80
2022/05/03 18:18:17;;;;;;;3.42;2.25;;;;;;;23.89;38.63;100190.16;20371827;28;97915;-79
2022/05/03 18:28:18;;;;;;;3.65;2.08;;;;;;;23.87;38.07;100213.28;20353029;28;97664;-80
2022/05/03 18:38:21;;;;;;;8.32;2.20;;;;;;;23.89;38.36;100225.38;20347605;28;97179;-81
2022/05/03 18:48:21;;;;;;;4.28;2.00;;;;;;;23.88;37.89;100226.34;20373080;28;99036;-79
2022/05/03 18:58:22;;;;;;;3.50;2.40;;;;;;;23.87;38.18;100234.44;20371209;28;97642;-79
2022/05/03 19:08:22;;;;;;;4.57;2.08;;;;;;;23.88;38.03;100244.88;20399865;28;97724;-81
2022/05/03 19:18:23;;;;;;;3.00;2.15;;;;;;;23.86;38.45;100249.44;20440819;28;98453;-80
2022/05/03 19:38:43;;;;;;;4.18;2.17;;;;;;;23.85;38.49;100244.31;20469679;28;97051;-81
2022/05/03 19:48:46;;;;;;;5.53;2.80;;;;;;;23.83;38.56;100233.88;20469030;28;96955;-81
2022/05/03 19:58:46;;;;;;;3.30;2.20;;;;;;;23.82;38.69;100246.25;20447252;28;98061;-79
2022/05/03 20:08:47;;;;;;;5.90;2.40;;;;;;;23.80;38.95;100248.22;20447990;28;97241;-79
2022/05/03 20:18:48;;;;;;;4.25;2.50;;;;;;;23.80;39.30;100255.28;20448409;28;97656;-78
2022/05/03 20:28:48;;;;;;;5.28;2.30;;;;;;;23.76;39.22;100257.38;20407704;28;99217;-78
2022/05/03 20:38:49;;;;;;;3.45;2.40;;;;;;;23.78;39.21;100266.03;20396698;28;97911;-78
2022/05/03 20:48:59;;;;;;;2.87;2.10;;;;;;;23.76;39.26;100270.59;20430188;28;100054;-78
2022/05/03 20:59:00;;;;;;;4.60;2.10;;;;;;;23.75;39.33;100276.03;20419564;28;99114;-78
2022/05/03 21:09:01;;;;;;;3.25;2.22;;;;;;;23.76;39.20;100273.25;20413092;28;97261;-78
2022/05/03 21:19:03;;;;;;;2.75;1.90;;;;;;;23.76;39.28;100269.78;20416349;28;98699;-78
2022/05/03 21:29:03;;;;;;;2.83;2.10;;;;;;;23.76;39.28;100275.06;20403807;28;97501;-78
2022/05/03 21:39:03;;;;;;;2.47;2.13;;;;;;;23.73;39.30;100283.25;20395198;28;99607;-78
2022/05/03 21:49:04;;;;;;;3.25;2.00;;;;;;;23.71;39.39;100282.59;20426089;28;97560;-78
2022/05/03 21:59:05;;;;;;;2.85;2.28;;;;;;;23.68;39.53;100286.34;20418716;28;97651;-78
2022/05/03 22:09:05;;;;;;;2.20;2.00;;;;;;;23.69;39.49;100284.53;20427860;28;98010;-78
2022/05/03 22:19:06;;;;;;;3.08;1.90;;;;;;;23.66;39.68;100281.16;20409459;28;98411;-78
2022/05/03 22:29:06;;;;;;;2.65;2.00;;;;;;;23.67;39.77;100300.53;20425321;28;98812;-78
2022/05/03 22:39:07;;;;;;;3.47;2.00;;;;;;;23.63;39.69;100304.41;20408162;28;97657;-79
2022/05/03 22:49:09;;;;;;;2.30;2.03;;;;;;;23.61;39.79;100301.91;20423770;27;97380;-78
2022/05/03 22:59:09;;;;;;;3.53;1.90;;;;;;;23.53;40.12;100314.13;20421236;28;100682;-78
2022/05/03 23:09:10;;;;;;;2.30;1.97;;;;;;;23.54;40.14;100307.88;20418595;28;97244;-78
2022/05/03 23:19:10;;;;;;;3.33;2.30;;;;;;;23.59;39.81;100317.06;20410537;28;98491;-79
2022/05/03 23:29:10;;;;;;;4.00;2.33;;;;;;;23.56;40.24;100311.19;20421955;28;98533;-78
2022/05/03 23:39:11;;;;;;;2.60;2.20;;;;;;;23.57;40.06;100311.09;20397037;28;99436;-78
2022/05/03 23:49:12;;;;;;;3.58;2.15;;;;;;;23.53;40.33;100324.72;20423899;28;101407;-78
2022/05/03 23:59:12;;;;;;;2.65;2.30;;;;;;;23.54;40.20;100315.81;20435803;28;97261;-78
